sensor_id;sensor_type;location;lat;lon;timestamp;P1;durP1;ratioP1;P2;durP2;ratioP2
2866;SDS011;1441;48.886;8.728;2023-07-20T00:01:30;1.73;;;1.47;;
2866;SDS011;1441;48.886;8.728;2023-07-20T00:03:56;2.70;;;1.47;;
2866;SDS011;1441;48.886;8.728;2023-07-20T00:06:22;3.00;;;1.87;;
2866;SDS011;1441;48.886;8.728;2023-07-20T00:08:48;3.80;;;1.80;;
2866;SDS011;1441;48.886;8.728;2023-07-20T00:11:14;4.00;;;1.80;;
2866;SDS011;1441;48.886;8.728;2023-07-20T00:13:40;2.70;;;1.73;;
2866;SDS011;1441;48.886;8.728;2023-07-20T00:16:06;2.57;;;1.77;;
2866;SDS011;1441;48.886;8.728;2023-07-20T00:18:31;2.80;;;1.90;;
2866;SDS011;1441;48.886;8.728;2023-07-20T00:20:57;8.23;;;1.97;;
2866;SDS011;1441;48.886;8.728;2023-07-20T00:23:24;2.77;;;1.63;;
2866;SDS011;1441;48.886;8.728;2023-07-20T00:25:53;2.27;;;1.33;;
2866;SDS011;1441;48.886;8.728;2023-07-20T00:28:19;7.50;;;1.73;;
2866;SDS011;1441;48.886;8.728;2023-07-20T00:30:45;1.97;;;1.57;;
2866;SDS011;1441;48.886;8.728;2023-07-20T00:33:11;2.30;;;1.67;;
2866;SDS011;1441;48.886;8.728;2023-07-20T00:35:37;4.13;;;1.63;;
2866;SDS011;1441;48.886;8.728;2023-07-20T00:38:04;1.87;;;1.77;;
2866;SDS011;1441;48.886;8.728;2023-07-20T00:40:39;3.53;;;1.83;;
2866;SDS011;1441;48.886;8.728;2023-07-20T00:43:05;2.90;;;1.90;;
2866;SDS011;1441;48.886;8.728;2023-07-20T00:45:31;3.50;;;1.63;;
2866;SDS011;1441;48.886;8.728;2023-07-20T00:47:58;2.13;;;1.90;;
2866;SDS011;1441;48.886;8.728;2023-07-20T00:50:25;3.13;;;1.90;;
2866;SDS011;1441;48.886;8.728;2023-07-20T00:52:52;3.53;;;2.20;;
2866;SDS011;1441;48.886;8.728;2023-07-20T00:55:19;4.90;;;2.10;;
2866;SDS011;1441;48.886;8.728;2023-07-20T00:57:45;3.93;;;1.70;;
2866;SDS011;1441;48.886;8.728;2023-07-20T01:00:11;1.87;;;1.60;;
2866;SDS011;1441;48.886;8.728;2023-07-20T01:02:37;2.50;;;1.83;;
2866;SDS011;1441;48.886;8.728;2023-07-20T01:05:03;3.33;;;2.00;;
2866;SDS011;1441;48.886;8.728;2023-07-20T01:07:32;4.33;;;1.83;;
2866;SDS011;1441;48.886;8.728;2023-07-20T01:13:07;4.40;;;1.77;;
2866;SDS011;1441;48.886;8.728;2023-07-20T01:15:34;2.63;;;1.80;;
2866;SDS011;1441;48.886;8.728;2023-07-20T01:18:00;2.50;;;1.70;;
2866;SDS011;1441;48.886;8.728;2023-07-20T01:20:26;3.27;;;2.23;;
2866;SDS011;1441;48.886;8.728;2023-07-20T01:28:52;5.03;;;2.60;;
2866;SDS011;1441;48.886;8.728;2023-07-20T01:33:48;8.67;;;2.40;;
2866;SDS011;1441;48.886;8.728;2023-07-20T01:36:16;2.03;;;1.63;;
2866;SDS011;1441;48.886;8.728;2023-07-20T01:38:43;5.03;;;1.97;;
2866;SDS011;1441;48.886;8.728;2023-07-20T01:41:09;2.60;;;1.80;;
2866;SDS011;1441;48.886;8.728;2023-07-20T01:43:36;1.93;;;1.60;;
2866;SDS011;1441;48.886;8.728;2023-07-20T01:46:01;4.27;;;2.47;;
2866;SDS011;1441;48.886;8.728;2023-07-20T01:48:27;2.70;;;1.67;;
2866;SDS011;1441;48.886;8.728;2023-07-20T01:50:52;4.27;;;1.90;;
2866;SDS011;1441;48.886;8.728;2023-07-20T01:53:18;2.17;;;1.73;;
2866;SDS011;1441;48.886;8.728;2023-07-20T01:55:44;2.97;;;1.77;;
2866;SDS011;1441;48.886;8.728;2023-07-20T01:58:10;2.30;;;1.63;;
2866;SDS011;1441;48.886;8.728;2023-07-20T02:00:39;2.80;;;1.50;;
2866;SDS011;1441;48.886;8.728;2023-07-20T02:03:04;3.23;;;2.07;;
2866;SDS011;1441;48.886;8.728;2023-07-20T02:05:30;6.73;;;1.50;;
2866;SDS011;1441;48.886;8.728;2023-07-20T02:07:56;3.93;;;2.47;;
2866;SDS011;1441;48.886;8.728;2023-07-20T02:10:21;3.33;;;1.50;;
2866;SDS011;1441;48.886;8.728;2023-07-20T02:12:47;5.70;;;2.03;;
2866;SDS011;1441;48.886;8.728;2023-07-20T02:15:13;3.50;;;1.60;;
2866;SDS011;1441;48.886;8.728;2023-07-20T02:17:41;4.33;;;1.57;;
2866;SDS011;1441;48.886;8.728;2023-07-20T02:20:07;4.03;;;2.20;;
2866;SDS011;1441;48.886;8.728;2023-07-20T02:22:35;2.23;;;2.00;;
2866;SDS011;1441;48.886;8.728;2023-07-20T02:25:01;3.97;;;1.50;;
2866;SDS011;1441;48.886;8.728;2023-07-20T02:27:28;5.17;;;1.50;;
2866;SDS011;1441;48.886;8.728;2023-07-20T02:29:54;2.10;;;1.63;;
2866;SDS011;1441;48.886;8.728;2023-07-20T02:32:20;4.93;;;1.80;;
2866;SDS011;1441;48.886;8.728;2023-07-20T02:34:45;2.23;;;1.50;;
2866;SDS011;1441;48.886;8.728;2023-07-20T02:37:11;1.83;;;1.40;;
2866;SDS011;1441;48.886;8.728;2023-07-20T02:39:38;2.10;;;1.50;;
2866;SDS011;1441;48.886;8.728;2023-07-20T02:42:04;5.23;;;1.43;;
2866;SDS011;1441;48.886;8.728;2023-07-20T02:44:29;3.50;;;1.77;;
2866;SDS011;1441;48.886;8.728;2023-07-20T02:46:55;2.77;;;1.63;;
2866;SDS011;1441;48.886;8.728;2023-07-20T02:49:21;2.60;;;2.00;;
2866;SDS011;1441;48.886;8.728;2023-07-20T02:51:46;3.00;;;1.53;;
2866;SDS011;1441;48.886;8.728;2023-07-20T02:54:12;2.47;;;1.60;;
2866;SDS011;1441;48.886;8.728;2023-07-20T02:56:37;1.60;;;1.50;;
2866;SDS011;1441;48.886;8.728;2023-07-20T02:59:03;2.30;;;1.63;;
2866;SDS011;1441;48.886;8.728;2023-07-20T03:01:29;1.87;;;1.30;;
2866;SDS011;1441;48.886;8.728;2023-07-20T03:03:55;2.80;;;2.00;;
2866;SDS011;1441;48.886;8.728;2023-07-20T03:06:21;2.00;;;1.60;;
2866;SDS011;1441;48.886;8.728;2023-07-20T03:08:47;4.53;;;2.00;;
2866;SDS011;1441;48.886;8.728;2023-07-20T03:11:14;4.20;;;1.67;;
2866;SDS011;1441;48.886;8.728;2023-07-20T03:13:40;2.00;;;1.47;;
2866;SDS011;1441;48.886;8.728;2023-07-20T03:16:07;3.30;;;1.73;;
2866;SDS011;1441;48.886;8.728;2023-07-20T03:18:36;4.83;;;1.70;;
2866;SDS011;1441;48.886;8.728;2023-07-20T03:21:03;1.83;;;1.53;;
2866;SDS011;1441;48.886;8.728;2023-07-20T03:23:29;3.37;;;2.10;;
2866;SDS011;1441;48.886;8.728;2023-07-20T03:25:55;2.20;;;1.43;;
2866;SDS011;1441;48.886;8.728;2023-07-20T03:28:21;4.77;;;1.70;;
2866;SDS011;1441;48.886;8.728;2023-07-20T03:30:46;2.53;;;2.20;;
2866;SDS011;1441;48.886;8.728;2023-07-20T03:33:17;2.40;;;2.00;;
2866;SDS011;1441;48.886;8.728;2023-07-20T03:35:43;5.23;;;1.93;;
2866;SDS011;1441;48.886;8.728;2023-07-20T03:38:08;4.47;;;1.50;;
2866;SDS011;1441;48.886;8.728;2023-07-20T03:40:34;1.70;;;1.60;;
2866;SDS011;1441;48.886;8.728;2023-07-20T03:42:59;3.93;;;1.70;;
2866;SDS011;1441;48.886;8.728;2023-07-20T03:45:25;2.50;;;1.43;;
2866;SDS011;1441;48.886;8.728;2023-07-20T03:47:50;4.90;;;1.40;;
2866;SDS011;1441;48.886;8.728;2023-07-20T03:50:16;2.53;;;1.93;;
2866;SDS011;1441;48.886;8.728;2023-07-20T03:52:42;2.40;;;1.20;;
2866;SDS011;1441;48.886;8.728;2023-07-20T03:55:07;3.57;;;2.17;;
2866;SDS011;1441;48.886;8.728;2023-07-20T03:57:33;2.93;;;1.60;;
2866;SDS011;1441;48.886;8.728;2023-07-20T03:59:59;1.97;;;1.87;;
2866;SDS011;1441;48.886;8.728;2023-07-20T04:02:24;1.50;;;1.40;;
2866;SDS011;1441;48.886;8.728;2023-07-20T04:04:50;4.27;;;2.00;;
2866;SDS011;1441;48.886;8.728;2023-07-20T04:07:16;2.33;;;1.57;;
2866;SDS011;1441;48.886;8.728;2023-07-20T04:09:41;3.90;;;1.87;;
2866;SDS011;1441;48.886;8.728;2023-07-20T04:12:07;2.13;;;1.50;;
2866;SDS011;1441;48.886;8.728;2023-07-20T04:14:34;2.00;;;1.83;;
2866;SDS011;1441;48.886;8.728;2023-07-20T04:16:59;2.80;;;2.20;;
2866;SDS011;1441;48.886;8.728;2023-07-20T04:19:25;2.43;;;1.80;;
2866;SDS011;1441;48.886;8.728;2023-07-20T04:21:51;3.60;;;1.90;;
2866;SDS011;1441;48.886;8.728;2023-07-20T04:24:16;5.03;;;1.80;;
2866;SDS011;1441;48.886;8.728;2023-07-20T04:26:42;3.23;;;1.83;;
2866;SDS011;1441;48.886;8.728;2023-07-20T04:29:08;3.73;;;1.70;;
2866;SDS011;1441;48.886;8.728;2023-07-20T04:31:34;2.77;;;1.50;;
2866;SDS011;1441;48.886;8.728;2023-07-20T04:34:00;2.70;;;1.30;;
2866;SDS011;1441;48.886;8.728;2023-07-20T04:36:26;4.73;;;1.90;;
2866;SDS011;1441;48.886;8.728;2023-07-20T04:38:51;8.17;;;1.80;;
2866;SDS011;1441;48.886;8.728;2023-07-20T04:41:17;2.10;;;1.50;;
2866;SDS011;1441;48.886;8.728;2023-07-20T04:43:43;4.23;;;1.77;;
2866;SDS011;1441;48.886;8.728;2023-07-20T04:46:11;1.20;;;1.20;;
2866;SDS011;1441;48.886;8.728;2023-07-20T04:48:37;2.53;;;1.60;;
2866;SDS011;1441;48.886;8.728;2023-07-20T04:51:02;1.67;;;1.57;;
2866;SDS011;1441;48.886;8.728;2023-07-20T04:53:28;1.97;;;1.87;;
2866;SDS011;1441;48.886;8.728;2023-07-20T04:55:54;2.93;;;2.00;;
2866;SDS011;1441;48.886;8.728;2023-07-20T04:58:20;4.10;;;2.70;;
2866;SDS011;1441;48.886;8.728;2023-07-20T05:00:48;4.23;;;2.13;;
2866;SDS011;1441;48.886;8.728;2023-07-20T05:03:14;2.53;;;1.73;;
2866;SDS011;1441;48.886;8.728;2023-07-20T05:05:39;4.83;;;2.47;;
2866;SDS011;1441;48.886;8.728;2023-07-20T05:08:05;4.40;;;1.80;;
2866;SDS011;1441;48.886;8.728;2023-07-20T05:10:31;1.70;;;1.60;;
2866;SDS011;1441;48.886;8.728;2023-07-20T05:12:57;7.53;;;1.90;;
2866;SDS011;1441;48.886;8.728;2023-07-20T05:15:23;5.00;;;1.67;;
2866;SDS011;1441;48.886;8.728;2023-07-20T05:17:49;3.37;;;1.70;;
2866;SDS011;1441;48.886;8.728;2023-07-20T05:20:14;2.97;;;1.83;;
2866;SDS011;1441;48.886;8.728;2023-07-20T05:22:40;3.43;;;2.27;;
2866;SDS011;1441;48.886;8.728;2023-07-20T05:25:09;2.00;;;1.80;;
2866;SDS011;1441;48.886;8.728;2023-07-20T05:27:36;2.00;;;1.67;;
2866;SDS011;1441;48.886;8.728;2023-07-20T05:30:03;1.63;;;1.53;;
2866;SDS011;1441;48.886;8.728;2023-07-20T05:32:29;5.77;;;1.57;;
2866;SDS011;1441;48.886;8.728;2023-07-20T05:34:55;4.90;;;1.60;;
2866;SDS011;1441;48.886;8.728;2023-07-20T05:37:21;2.83;;;1.53;;
2866;SDS011;1441;48.886;8.728;2023-07-20T05:39:46;5.07;;;2.17;;
2866;SDS011;1441;48.886;8.728;2023-07-20T05:42:12;3.03;;;1.70;;
2866;SDS011;1441;48.886;8.728;2023-07-20T05:44:39;7.20;;;2.40;;
2866;SDS011;1441;48.886;8.728;2023-07-20T05:47:05;5.50;;;2.00;;
2866;SDS011;1441;48.886;8.728;2023-07-20T05:49:30;4.30;;;1.60;;
2866;SDS011;1441;48.886;8.728;2023-07-20T05:51:56;2.70;;;1.60;;
2866;SDS011;1441;48.886;8.728;2023-07-20T05:54:22;3.67;;;1.40;;
2866;SDS011;1441;48.886;8.728;2023-07-20T05:56:50;2.20;;;1.50;;
2866;SDS011;1441;48.886;8.728;2023-07-20T05:59:15;1.33;;;1.17;;
2866;SDS011;1441;48.886;8.728;2023-07-20T06:01:41;4.10;;;1.60;;
2866;SDS011;1441;48.886;8.728;2023-07-20T06:04:08;3.60;;;1.13;;
2866;SDS011;1441;48.886;8.728;2023-07-20T06:06:33;2.70;;;1.50;;
2866;SDS011;1441;48.886;8.728;2023-07-20T06:08:59;1.60;;;1.50;;
2866;SDS011;1441;48.886;8.728;2023-07-20T06:11:28;4.67;;;1.40;;
2866;SDS011;1441;48.886;8.728;2023-07-20T06:13:55;2.07;;;1.37;;
2866;SDS011;1441;48.886;8.728;2023-07-20T06:16:21;5.70;;;1.40;;
2866;SDS011;1441;48.886;8.728;2023-07-20T06:18:47;1.27;;;1.17;;
2866;SDS011;1441;48.886;8.728;2023-07-20T06:21:12;1.60;;;1.50;;
2866;SDS011;1441;48.886;8.728;2023-07-20T06:23:38;4.30;;;1.73;;
2866;SDS011;1441;48.886;8.728;2023-07-20T06:26:05;2.93;;;1.70;;
2866;SDS011;1441;48.886;8.728;2023-07-20T06:28:31;2.60;;;1.63;;
2866;SDS011;1441;48.886;8.728;2023-07-20T06:31:00;2.00;;;1.90;;
2866;SDS011;1441;48.886;8.728;2023-07-20T06:33:27;4.27;;;1.33;;
2866;SDS011;1441;48.886;8.728;2023-07-20T06:35:52;1.60;;;1.23;;
2866;SDS011;1441;48.886;8.728;2023-07-20T06:38:18;1.67;;;1.30;;
2866;SDS011;1441;48.886;8.728;2023-07-20T06:40:45;2.20;;;1.40;;
2866;SDS011;1441;48.886;8.728;2023-07-20T06:43:12;5.73;;;1.33;;
2866;SDS011;1441;48.886;8.728;2023-07-20T06:45:37;2.13;;;1.30;;
2866;SDS011;1441;48.886;8.728;2023-07-20T06:48:03;2.73;;;1.80;;
2866;SDS011;1441;48.886;8.728;2023-07-20T06:50:29;3.20;;;1.40;;
2866;SDS011;1441;48.886;8.728;2023-07-20T06:52:54;4.33;;;1.13;;
2866;SDS011;1441;48.886;8.728;2023-07-20T06:55:20;2.30;;;1.37;;
2866;SDS011;1441;48.886;8.728;2023-07-20T06:57:46;3.07;;;1.33;;
2866;SDS011;1441;48.886;8.728;2023-07-20T07:00:12;2.57;;;1.57;;
2866;SDS011;1441;48.886;8.728;2023-07-20T07:02:37;2.47;;;1.67;;
2866;SDS011;1441;48.886;8.728;2023-07-20T07:05:03;1.40;;;1.30;;
2866;SDS011;1441;48.886;8.728;2023-07-20T07:07:29;3.83;;;1.57;;
2866;SDS011;1441;48.886;8.728;2023-07-20T07:09:55;3.73;;;1.40;;
2866;SDS011;1441;48.886;8.728;2023-07-20T07:12:20;1.67;;;1.57;;
2866;SDS011;1441;48.886;8.728;2023-07-20T07:14:46;1.87;;;1.30;;
2866;SDS011;1441;48.886;8.728;2023-07-20T07:17:11;2.10;;;1.40;;
2866;SDS011;1441;48.886;8.728;2023-07-20T07:19:37;5.63;;;1.40;;
2866;SDS011;1441;48.886;8.728;2023-07-20T07:22:03;2.40;;;1.70;;
2866;SDS011;1441;48.886;8.728;2023-07-20T07:24:29;2.37;;;1.43;;
2866;SDS011;1441;48.886;8.728;2023-07-20T07:27:02;2.03;;;1.20;;
2866;SDS011;1441;48.886;8.728;2023-07-20T07:29:28;2.00;;;1.87;;
2866;SDS011;1441;48.886;8.728;2023-07-20T07:31:54;6.10;;;1.87;;
2866;SDS011;1441;48.886;8.728;2023-07-20T07:34:20;4.70;;;1.60;;
2866;SDS011;1441;48.886;8.728;2023-07-20T07:36:45;2.20;;;1.20;;
2866;SDS011;1441;48.886;8.728;2023-07-20T07:39:12;3.03;;;1.50;;
2866;SDS011;1441;48.886;8.728;2023-07-20T07:41:38;2.53;;;1.50;;
2866;SDS011;1441;48.886;8.728;2023-07-20T07:44:03;1.23;;;1.10;;
2866;SDS011;1441;48.886;8.728;2023-07-20T07:46:29;1.50;;;1.40;;
2866;SDS011;1441;48.886;8.728;2023-07-20T07:48:54;2.67;;;1.60;;
2866;SDS011;1441;48.886;8.728;2023-07-20T07:51:20;6.30;;;1.70;;
2866;SDS011;1441;48.886;8.728;2023-07-20T07:53:46;1.23;;;1.00;;
2866;SDS011;1441;48.886;8.728;2023-07-20T07:56:12;1.57;;;1.20;;
2866;SDS011;1441;48.886;8.728;2023-07-20T07:58:37;4.70;;;1.30;;
2866;SDS011;1441;48.886;8.728;2023-07-20T08:01:03;1.53;;;1.40;;
2866;SDS011;1441;48.886;8.728;2023-07-20T08:03:29;1.80;;;1.40;;
2866;SDS011;1441;48.886;8.728;2023-07-20T08:05:55;2.17;;;1.07;;
2866;SDS011;1441;48.886;8.728;2023-07-20T08:08:21;2.17;;;1.20;;
2866;SDS011;1441;48.886;8.728;2023-07-20T08:10:46;6.43;;;1.23;;
2866;SDS011;1441;48.886;8.728;2023-07-20T08:13:12;3.00;;;1.33;;
2866;SDS011;1441;48.886;8.728;2023-07-20T08:15:38;4.40;;;1.50;;
2866;SDS011;1441;48.886;8.728;2023-07-20T08:18:04;1.33;;;1.13;;
2866;SDS011;1441;48.886;8.728;2023-07-20T08:20:30;0.80;;;0.80;;
2866;SDS011;1441;48.886;8.728;2023-07-20T08:22:57;1.47;;;1.30;;
2866;SDS011;1441;48.886;8.728;2023-07-20T08:25:24;2.37;;;0.97;;
2866;SDS011;1441;48.886;8.728;2023-07-20T08:27:50;1.27;;;1.00;;
2866;SDS011;1441;48.886;8.728;2023-07-20T08:30:16;2.90;;;1.27;;
2866;SDS011;1441;48.886;8.728;2023-07-20T08:32:42;2.13;;;1.10;;
2866;SDS011;1441;48.886;8.728;2023-07-20T08:35:08;2.50;;;1.00;;
2866;SDS011;1441;48.886;8.728;2023-07-20T08:37:34;1.73;;;1.10;;
2866;SDS011;1441;48.886;8.728;2023-07-20T08:39:59;6.27;;;1.10;;
2866;SDS011;1441;48.886;8.728;2023-07-20T08:42:25;1.20;;;1.10;;
2866;SDS011;1441;48.886;8.728;2023-07-20T08:44:52;1.17;;;1.13;;
2866;SDS011;1441;48.886;8.728;2023-07-20T08:47:19;5.33;;;1.10;;
2866;SDS011;1441;48.886;8.728;2023-07-20T08:49:48;1.37;;;1.00;;
2866;SDS011;1441;48.886;8.728;2023-07-20T08:52:13;6.23;;;1.07;;
2866;SDS011;1441;48.886;8.728;2023-07-20T08:54:39;2.47;;;1.17;;
2866;SDS011;1441;48.886;8.728;2023-07-20T08:57:05;2.70;;;1.10;;
2866;SDS011;1441;48.886;8.728;2023-07-20T08:59:31;1.83;;;1.00;;
2866;SDS011;1441;48.886;8.728;2023-07-20T09:02:00;0.90;;;0.90;;
2866;SDS011;1441;48.886;8.728;2023-07-20T09:04:27;1.27;;;0.93;;
2866;SDS011;1441;48.886;8.728;2023-07-20T09:06:52;3.47;;;1.00;;
2866;SDS011;1441;48.886;8.728;2023-07-20T09:09:18;2.23;;;1.07;;
2866;SDS011;1441;48.886;8.728;2023-07-20T09:11:46;2.07;;;1.10;;
2866;SDS011;1441;48.886;8.728;2023-07-20T09:14:12;1.03;;;1.00;;
2866;SDS011;1441;48.886;8.728;2023-07-20T09:16:52;1.33;;;0.90;;
2866;SDS011;1441;48.886;8.728;2023-07-20T09:19:19;2.30;;;1.10;;
2866;SDS011;1441;48.886;8.728;2023-07-20T09:21:46;1.13;;;1.03;;
2866;SDS011;1441;48.886;8.728;2023-07-20T09:24:12;3.90;;;0.90;;
2866;SDS011;1441;48.886;8.728;2023-07-20T09:26:42;1.67;;;0.80;;
2866;SDS011;1441;48.886;8.728;2023-07-20T09:29:08;1.00;;;0.90;;
2866;SDS011;1441;48.886;8.728;2023-07-20T09:31:35;1.80;;;1.00;;
2866;SDS011;1441;48.886;8.728;2023-07-20T09:34:01;1.10;;;0.93;;
2866;SDS011;1441;48.886;8.728;2023-07-20T09:36:26;1.43;;;0.80;;
2866;SDS011;1441;48.886;8.728;2023-07-20T09:38:53;1.73;;;0.77;;
2866;SDS011;1441;48.886;8.728;2023-07-20T09:41:19;2.50;;;0.97;;
2866;SDS011;1441;48.886;8.728;2023-07-20T09:43:46;1.47;;;1.00;;
2866;SDS011;1441;48.886;8.728;2023-07-20T09:46:11;0.93;;;0.90;;
2866;SDS011;1441;48.886;8.728;2023-07-20T09:48:37;0.80;;;0.80;;
2866;SDS011;1441;48.886;8.728;2023-07-20T09:51:03;5.30;;;1.23;;
2866;SDS011;1441;48.886;8.728;2023-07-20T09:53:30;0.80;;;0.80;;
2866;SDS011;1441;48.886;8.728;2023-07-20T09:55:57;1.27;;;0.80;;
2866;SDS011;1441;48.886;8.728;2023-07-20T09:58:25;1.13;;;0.80;;
2866;SDS011;1441;48.886;8.728;2023-07-20T10:00:52;1.90;;;1.00;;
2866;SDS011;1441;48.886;8.728;2023-07-20T10:03:20;2.77;;;0.90;;
2866;SDS011;1441;48.886;8.728;2023-07-20T10:06:06;1.20;;;0.80;;
2866;SDS011;1441;48.886;8.728;2023-07-20T10:08:35;1.57;;;1.20;;
2866;SDS011;1441;48.886;8.728;2023-07-20T10:11:07;1.27;;;0.80;;
2866;SDS011;1441;48.886;8.728;2023-07-20T10:13:36;1.30;;;1.00;;
2866;SDS011;1441;48.886;8.728;2023-07-20T10:16:07;0.93;;;0.93;;
2866;SDS011;1441;48.886;8.728;2023-07-20T10:21:21;1.20;;;0.83;;
2866;SDS011;1441;48.886;8.728;2023-07-20T10:23:50;1.00;;;1.00;;
2866;SDS011;1441;48.886;8.728;2023-07-20T10:26:16;1.83;;;0.80;;
2866;SDS011;1441;48.886;8.728;2023-07-20T10:28:41;1.63;;;1.00;;
2866;SDS011;1441;48.886;8.728;2023-07-20T10:31:08;1.70;;;0.90;;
2866;SDS011;1441;48.886;8.728;2023-07-20T10:33:37;1.10;;;1.00;;
2866;SDS011;1441;48.886;8.728;2023-07-20T10:36:03;1.73;;;1.40;;
2866;SDS011;1441;48.886;8.728;2023-07-20T10:38:42;3.40;;;1.00;;
2866;SDS011;1441;48.886;8.728;2023-07-20T10:41:18;0.83;;;0.80;;
2866;SDS011;1441;48.886;8.728;2023-07-20T10:44:03;1.03;;;0.80;;
2866;SDS011;1441;48.886;8.728;2023-07-20T10:49:07;1.80;;;0.90;;
2866;SDS011;1441;48.886;8.728;2023-07-20T10:51:44;1.67;;;0.70;;
2866;SDS011;1441;48.886;8.728;2023-07-20T10:56:41;0.77;;;0.77;;
2866;SDS011;1441;48.886;8.728;2023-07-20T10:59:17;0.70;;;0.70;;
2866;SDS011;1441;48.886;8.728;2023-07-20T11:01:49;1.60;;;0.80;;
2866;SDS011;1441;48.886;8.728;2023-07-20T11:04:43;0.83;;;0.83;;
2866;SDS011;1441;48.886;8.728;2023-07-20T11:07:15;1.20;;;0.90;;
2866;SDS011;1441;48.886;8.728;2023-07-20T11:09:42;3.50;;;0.97;;
2866;SDS011;1441;48.886;8.728;2023-07-20T11:12:14;0.73;;;0.73;;
2866;SDS011;1441;48.886;8.728;2023-07-20T11:17:12;1.67;;;0.80;;
2866;SDS011;1441;48.886;8.728;2023-07-20T11:19:39;0.80;;;0.77;;
2866;SDS011;1441;48.886;8.728;2023-07-20T11:22:08;1.70;;;1.50;;
2866;SDS011;1441;48.886;8.728;2023-07-20T11:24:34;1.60;;;0.93;;
2866;SDS011;1441;48.886;8.728;2023-07-20T11:27:04;2.97;;;1.13;;
2866;SDS011;1441;48.886;8.728;2023-07-20T11:29:30;0.93;;;0.93;;
2866;SDS011;1441;48.886;8.728;2023-07-20T11:31:56;1.47;;;0.90;;
2866;SDS011;1441;48.886;8.728;2023-07-20T11:34:22;1.63;;;0.70;;
2866;SDS011;1441;48.886;8.728;2023-07-20T11:36:48;1.00;;;0.73;;
2866;SDS011;1441;48.886;8.728;2023-07-20T11:39:15;1.30;;;1.00;;
2866;SDS011;1441;48.886;8.728;2023-07-20T11:41:47;1.53;;;1.10;;
2866;SDS011;1441;48.886;8.728;2023-07-20T11:44:18;1.97;;;1.00;;
2866;SDS011;1441;48.886;8.728;2023-07-20T11:46:44;1.00;;;0.80;;
2866;SDS011;1441;48.886;8.728;2023-07-20T11:49:11;1.50;;;1.20;;
2866;SDS011;1441;48.886;8.728;2023-07-20T11:51:36;1.77;;;1.23;;
2866;SDS011;1441;48.886;8.728;2023-07-20T11:54:04;2.00;;;1.00;;
2866;SDS011;1441;48.886;8.728;2023-07-20T11:56:31;1.20;;;1.10;;
2866;SDS011;1441;48.886;8.728;2023-07-20T11:58:57;1.10;;;0.80;;
2866;SDS011;1441;48.886;8.728;2023-07-20T12:01:27;1.70;;;0.90;;
2866;SDS011;1441;48.886;8.728;2023-07-20T12:03:56;1.50;;;1.30;;
2866;SDS011;1441;48.886;8.728;2023-07-20T12:06:25;3.00;;;1.00;;
2866;SDS011;1441;48.886;8.728;2023-07-20T12:08:55;4.80;;;1.10;;
2866;SDS011;1441;48.886;8.728;2023-07-20T12:14:01;1.43;;;0.90;;
2866;SDS011;1441;48.886;8.728;2023-07-20T12:16:28;0.90;;;0.80;;
2866;SDS011;1441;48.886;8.728;2023-07-20T12:21:34;6.33;;;0.70;;
2866;SDS011;1441;48.886;8.728;2023-07-20T12:24:03;1.13;;;1.10;;
2866;SDS011;1441;48.886;8.728;2023-07-20T12:26:30;0.70;;;0.70;;
2866;SDS011;1441;48.886;8.728;2023-07-20T12:28:56;0.70;;;0.70;;
2866;SDS011;1441;48.886;8.728;2023-07-20T12:31:23;3.17;;;1.20;;
2866;SDS011;1441;48.886;8.728;2023-07-20T12:33:49;1.07;;;0.90;;
2866;SDS011;1441;48.886;8.728;2023-07-20T12:36:15;0.97;;;0.83;;
2866;SDS011;1441;48.886;8.728;2023-07-20T12:38:41;2.23;;;0.80;;
2866;SDS011;1441;48.886;8.728;2023-07-20T12:41:07;0.70;;;0.70;;
2866;SDS011;1441;48.886;8.728;2023-07-20T12:43:34;3.87;;;0.83;;
2866;SDS011;1441;48.886;8.728;2023-07-20T12:45:59;1.17;;;0.60;;
2866;SDS011;1441;48.886;8.728;2023-07-20T12:48:25;0.90;;;0.90;;
2866;SDS011;1441;48.886;8.728;2023-07-20T12:50:51;2.63;;;0.90;;
2866;SDS011;1441;48.886;8.728;2023-07-20T12:53:17;0.87;;;0.87;;
2866;SDS011;1441;48.886;8.728;2023-07-20T12:55:42;2.20;;;0.70;;
2866;SDS011;1441;48.886;8.728;2023-07-20T12:58:08;5.30;;;1.23;;
2866;SDS011;1441;48.886;8.728;2023-07-20T13:00:34;0.80;;;0.80;;
2866;SDS011;1441;48.886;8.728;2023-07-20T13:03:00;1.27;;;0.93;;
2866;SDS011;1441;48.886;8.728;2023-07-20T13:05:30;1.57;;;0.80;;
2866;SDS011;1441;48.886;8.728;2023-07-20T13:07:57;0.80;;;0.70;;
2866;SDS011;1441;48.886;8.728;2023-07-20T13:10:23;4.80;;;0.87;;
2866;SDS011;1441;48.886;8.728;2023-07-20T13:12:49;1.23;;;0.87;;
2866;SDS011;1441;48.886;8.728;2023-07-20T13:15:15;1.30;;;0.60;;
2866;SDS011;1441;48.886;8.728;2023-07-20T13:17:41;3.40;;;0.73;;
2866;SDS011;1441;48.886;8.728;2023-07-20T13:20:08;0.60;;;0.60;;
2866;SDS011;1441;48.886;8.728;2023-07-20T13:22:35;0.73;;;0.73;;
2866;SDS011;1441;48.886;8.728;2023-07-20T13:25:04;0.80;;;0.80;;
2866;SDS011;1441;48.886;8.728;2023-07-20T13:27:31;0.63;;;0.63;;
2866;SDS011;1441;48.886;8.728;2023-07-20T13:29:57;0.80;;;0.80;;
2866;SDS011;1441;48.886;8.728;2023-07-20T13:32:23;4.73;;;0.60;;
2866;SDS011;1441;48.886;8.728;2023-07-20T13:34:49;0.97;;;0.97;;
2866;SDS011;1441;48.886;8.728;2023-07-20T13:37:15;0.70;;;0.70;;
2866;SDS011;1441;48.886;8.728;2023-07-20T13:39:41;0.77;;;0.77;;
2866;SDS011;1441;48.886;8.728;2023-07-20T13:42:06;1.47;;;0.80;;
2866;SDS011;1441;48.886;8.728;2023-07-20T13:44:34;1.13;;;0.70;;
2866;SDS011;1441;48.886;8.728;2023-07-20T13:47:00;0.77;;;0.77;;
2866;SDS011;1441;48.886;8.728;2023-07-20T13:49:26;0.70;;;0.70;;
2866;SDS011;1441;48.886;8.728;2023-07-20T13:51:52;0.77;;;0.77;;
2866;SDS011;1441;48.886;8.728;2023-07-20T13:54:18;0.73;;;0.67;;
2866;SDS011;1441;48.886;8.728;2023-07-20T13:56:45;0.83;;;0.63;;
2866;SDS011;1441;48.886;8.728;2023-07-20T13:59:11;0.70;;;0.70;;
2866;SDS011;1441;48.886;8.728;2023-07-20T14:01:36;1.10;;;0.80;;
2866;SDS011;1441;48.886;8.728;2023-07-20T14:04:02;0.70;;;0.63;;
2866;SDS011;1441;48.886;8.728;2023-07-20T14:06:29;0.70;;;0.70;;
2866;SDS011;1441;48.886;8.728;2023-07-20T14:08:55;0.60;;;0.60;;
2866;SDS011;1441;48.886;8.728;2023-07-20T14:11:21;1.23;;;0.70;;
2866;SDS011;1441;48.886;8.728;2023-07-20T14:13:47;0.60;;;0.60;;
2866;SDS011;1441;48.886;8.728;2023-07-20T14:16:13;0.83;;;0.80;;
2866;SDS011;1441;48.886;8.728;2023-07-20T14:18:38;0.77;;;0.77;;
2866;SDS011;1441;48.886;8.728;2023-07-20T14:21:04;0.80;;;0.80;;
2866;SDS011;1441;48.886;8.728;2023-07-20T14:23:31;1.23;;;0.80;;
2866;SDS011;1441;48.886;8.728;2023-07-20T14:25:57;1.43;;;0.80;;
2866;SDS011;1441;48.886;8.728;2023-07-20T14:28:24;0.87;;;0.87;;
2866;SDS011;1441;48.886;8.728;2023-07-20T14:30:49;1.27;;;0.70;;
2866;SDS011;1441;48.886;8.728;2023-07-20T14:33:15;0.90;;;0.60;;
2866;SDS011;1441;48.886;8.728;2023-07-20T14:35:41;0.73;;;0.70;;
2866;SDS011;1441;48.886;8.728;2023-07-20T14:38:06;1.03;;;0.93;;
2866;SDS011;1441;48.886;8.728;2023-07-20T14:40:32;0.67;;;0.67;;
2866;SDS011;1441;48.886;8.728;2023-07-20T14:42:58;0.70;;;0.70;;
2866;SDS011;1441;48.886;8.728;2023-07-20T14:45:26;0.87;;;0.87;;
2866;SDS011;1441;48.886;8.728;2023-07-20T14:47:52;0.77;;;0.73;;
2866;SDS011;1441;48.886;8.728;2023-07-20T14:50:22;1.43;;;1.00;;
2866;SDS011;1441;48.886;8.728;2023-07-20T14:52:48;1.23;;;0.77;;
2866;SDS011;1441;48.886;8.728;2023-07-20T14:55:14;1.00;;;1.00;;
2866;SDS011;1441;48.886;8.728;2023-07-20T14:57:40;0.87;;;0.87;;
2866;SDS011;1441;48.886;8.728;2023-07-20T15:00:06;0.80;;;0.80;;
2866;SDS011;1441;48.886;8.728;2023-07-20T15:02:35;0.90;;;0.90;;
2866;SDS011;1441;48.886;8.728;2023-07-20T15:05:02;1.60;;;0.80;;
2866;SDS011;1441;48.886;8.728;2023-07-20T15:07:27;1.23;;;0.90;;
2866;SDS011;1441;48.886;8.728;2023-07-20T15:09:53;1.03;;;0.90;;
2866;SDS011;1441;48.886;8.728;2023-07-20T15:12:19;1.90;;;0.70;;
2866;SDS011;1441;48.886;8.728;2023-07-20T15:14:44;0.80;;;0.80;;
2866;SDS011;1441;48.886;8.728;2023-07-20T15:17:28;0.70;;;0.70;;
2866;SDS011;1441;48.886;8.728;2023-07-20T15:19:54;1.13;;;0.77;;
2866;SDS011;1441;48.886;8.728;2023-07-20T15:22:19;0.83;;;0.80;;
2866;SDS011;1441;48.886;8.728;2023-07-20T15:24:45;2.20;;;0.90;;
2866;SDS011;1441;48.886;8.728;2023-07-20T15:27:10;3.80;;;1.30;;
2866;SDS011;1441;48.886;8.728;2023-07-20T15:29:36;0.70;;;0.70;;
2866;SDS011;1441;48.886;8.728;2023-07-20T15:32:01;0.83;;;0.80;;
2866;SDS011;1441;48.886;8.728;2023-07-20T15:34:27;2.17;;;0.77;;
2866;SDS011;1441;48.886;8.728;2023-07-20T15:36:52;1.07;;;0.77;;
2866;SDS011;1441;48.886;8.728;2023-07-20T15:39:18;0.70;;;0.70;;